METAR Data
IDs: Format: Raw Decoded Include TAF

Data at: 0308 UTC 25 Feb 2021

CYQG 250300Z AUTO 34007KT 9SM CLR 01/M04 A3007 RMK SLP193